If you wish to contribute or participate in the discussions about articles you are invited to join SKYbrary as a registered user

 Actions

Châlons-Vatry Air Base

From SKYbrary Wiki

LFOK /
Revision as of 20:15, 16 February 2015 by Timo.Kouwenhoven (talk | contribs) (LF Airports CSV import)
(diff) ← Older revision | Latest revision (diff) | Newer revision → (diff)
Airport
ICAO: LFOK – IATA: XCR
Summary
Name Châlons-Vatry Air Base
Region Europe
Territory France FR.gif
Location , Champagne-Ardenne
Serving Chalons
Elevation 178.918 m
587 ft
587 ft178.918 m
Type medium airport
Coordinates 48° 46' 33.86" N, 4° 11' 4.17" E
Runways
Designator Length Width Surface ROPS
10/28 3860 m12,664.042 ft
45 m147.638 ft
CON yes/yes


METAR
Observation LFOK 171600Z AUTO 20013KT 9999 BKN008/// OVC013/// ///CB 14/13 Q1011 TEMPO 4000 RA BECMG OVC017
Station Chalons-Vatry
Date/Time 17 October 2019 16:00:00
Wind direction 200°
Wind speed 13 kts
Lowest cloud amount broken clouds
Temperature 14°C
Dew point 13°C
Humidity 93%
QNH 1011 hPa
Weather condition n/a